Time;durP1;ratioP1;P1;durP2;ratioP2;P2;SDS_P1;SDS_P2;PMS_P1;PMS_P2;Temp;Humidity;BMP_temperature;BMP_pressure;BME280_temperature;BME280_humidity;BME280_pressure;Samples;Min_cycle;Max_cycle;Signal;HPM_P1;HPM_P2
2024/01/02 00:01:02;;;;;;;13.35;3.55;;;;;;;;;;5090552;28;20052;-65
2024/01/02 00:03:28;;;;;;;12.68;3.50;;;;;;;;;;5092105;28;20047;-65
2024/01/02 00:05:54;;;;;;;14.63;3.60;;;;;;;;;;5092408;28;20047;-65
2024/01/02 00:08:20;;;;;;;12.25;3.33;;;;;;;;;;5092098;28;20032;-65
2024/01/02 00:10:46;;;;;;;14.38;3.00;;;;;;;;;;5091948;28;20040;-65
2024/01/02 00:13:12;;;;;;;12.55;3.58;;;;;;;;;;5092206;28;20047;-65
2024/01/02 00:15:38;;;;;;;12.65;3.45;;;;;;;;;;5092163;28;20409;-65
2024/01/02 00:18:04;;;;;;;12.60;3.00;;;;;;;;;;5091514;28;20036;-65
2024/01/02 00:20:30;;;;;;;13.57;3.47;;;;;;;;;;5109883;28;20046;-65
2024/01/02 00:22:56;;;;;;;14.82;2.83;;;;;;;;;;5110851;28;20032;-65
2024/01/02 00:25:22;;;;;;;9.32;2.72;;;;;;;;;;5106337;28;20040;-65
2024/01/02 00:27:48;;;;;;;6.95;2.95;;;;;;;;;;5090317;28;20043;-65
2024/01/02 00:30:15;;;;;;;9.75;2.83;;;;;;;;;;5091782;28;20043;-65
2024/01/02 00:32:41;;;;;;;11.52;2.83;;;;;;;;;;5090011;28;20044;-65
2024/01/02 00:35:07;;;;;;;8.93;2.53;;;;;;;;;;5090220;28;20047;-65
2024/01/02 00:37:33;;;;;;;9.27;2.65;;;;;;;;;;5091762;28;20465;-65
2024/01/02 00:39:59;;;;;;;12.43;2.75;;;;;;;;;;5089547;28;20044;-65
2024/01/02 00:42:25;;;;;;;13.32;2.88;;;;;;;;;;5091030;28;20035;-65
2024/01/02 00:44:51;;;;;;;14.55;2.53;;;;;;;;;;5091784;28;20102;-65
2024/01/02 00:47:20;;;;;;;13.13;2.70;;;;;;;;;;5091137;28;20417;-65
2024/01/02 00:49:47;;;;;;;12.80;2.60;;;;;;;;;;5091488;28;20111;-65
2024/01/02 00:52:13;;;;;;;7.57;2.58;;;;;;;;;;5091391;28;20236;-65
2024/01/02 00:54:39;;;;;;;14.88;2.92;;;;;;;;;;5089839;28;20040;-65
2024/01/02 00:57:05;;;;;;;16.35;3.03;;;;;;;;;;5091197;28;20051;-65
2024/01/02 00:59:31;;;;;;;13.07;3.20;;;;;;;;;;5091247;28;20059;-65
2024/01/02 01:01:57;;;;;;;8.93;2.65;;;;;;;;;;5089698;28;20055;-65
2024/01/02 01:04:23;;;;;;;11.90;2.63;;;;;;;;;;5089669;28;20040;-65
2024/01/02 01:06:49;;;;;;;11.90;2.60;;;;;;;;;;5091139;28;20039;-65
2024/01/02 01:09:15;;;;;;;9.45;2.60;;;;;;;;;;5090645;28;20441;-65
2024/01/02 01:11:41;;;;;;;10.02;2.15;;;;;;;;;;5091075;28;20047;-65
2024/01/02 01:14:07;;;;;;;11.23;2.50;;;;;;;;;;5091090;28;20032;-65
2024/01/02 01:16:33;;;;;;;13.57;3.13;;;;;;;;;;5090347;28;20051;-65
2024/01/02 01:18:59;;;;;;;10.43;2.80;;;;;;;;;;5096073;28;20040;-65
2024/01/02 01:21:25;;;;;;;14.32;2.70;;;;;;;;;;5111514;28;20131;-65
2024/01/02 01:23:51;;;;;;;13.18;3.20;;;;;;;;;;5110861;28;20036;-65
2024/01/02 01:26:17;;;;;;;13.90;2.58;;;;;;;;;;5099099;28;20040;-65
2024/01/02 01:28:43;;;;;;;15.20;2.70;;;;;;;;;;5090568;28;20055;-65
2024/01/02 01:31:09;;;;;;;12.43;3.28;;;;;;;;;;5088759;28;20479;-65
2024/01/02 01:33:35;;;;;;;11.90;2.35;;;;;;;;;;5090419;28;20424;-65
2024/01/02 01:36:01;;;;;;;11.85;3.08;;;;;;;;;;5090767;28;20036;-65
2024/01/02 01:38:27;;;;;;;13.40;3.00;;;;;;;;;;5088507;28;20471;-65
2024/01/02 01:40:53;;;;;;;15.68;3.00;;;;;;;;;;5090215;28;20098;-65
2024/01/02 01:43:19;;;;;;;13.63;3.00;;;;;;;;;;5090532;28;20376;-65
2024/01/02 01:45:45;;;;;;;15.48;3.45;;;;;;;;;;5090010;28;20321;-65
2024/01/02 01:48:11;;;;;;;13.75;3.28;;;;;;;;;;5090387;28;20043;-65
2024/01/02 01:50:37;;;;;;;16.02;3.05;;;;;;;;;;5090285;28;20040;-65
2024/01/02 01:53:04;;;;;;;12.63;3.10;;;;;;;;;;5088193;28;20048;-65
2024/01/02 01:55:30;;;;;;;15.73;3.55;;;;;;;;;;5089482;28;20168;-65
2024/01/02 01:57:56;;;;;;;20.88;3.78;;;;;;;;;;5089994;28;20140;-65
2024/01/02 02:00:22;;;;;;;11.60;3.85;;;;;;;;;;5089806;28;20109;-65
2024/01/02 02:02:48;;;;;;;18.23;4.40;;;;;;;;;;5089008;28;20051;-65
2024/01/02 02:05:16;;;;;;;15.43;4.57;;;;;;;;;;5088509;28;20036;-65
2024/01/02 02:07:42;;;;;;;10.52;4.28;;;;;;;;;;5089687;28;20040;-65
2024/01/02 02:10:08;;;;;;;13.73;5.13;;;;;;;;;;5089990;28;20173;-65
2024/01/02 02:12:35;;;;;;;10.98;4.45;;;;;;;;;;5089822;28;20036;-65
2024/01/02 02:15:01;;;;;;;15.85;4.40;;;;;;;;;;5089746;28;20041;-65
2024/01/02 02:17:31;;;;;;;13.52;4.85;;;;;;;;;;5088375;28;20115;-65
2024/01/02 02:19:57;;;;;;;13.70;4.45;;;;;;;;;;5103442;28;20039;-65
2024/01/02 02:22:28;;;;;;;20.80;5.63;;;;;;;;;;5108327;28;20040;-65
2024/01/02 08:55:26;;;;;;;27.38;4.72;;;;;;;;;;1463030;26;20041;-65
2024/01/02 09:00:39;;;;;;;25.34;3.69;;;;;;;;;;4614820;22;10001307;-67
2024/01/02 09:03:06;;;;;;;32.33;3.67;;;;;;;;;;4979075;28;20519;-65
2024/01/02 09:05:32;;;;;;;31.20;5.15;;;;;;;;;;4978631;28;20031;-67
2024/01/02 09:08:00;;;;;;;27.70;4.03;;;;;;;;;;4977757;28;20038;-67
2024/01/02 09:10:26;;;;;;;25.00;4.15;;;;;;;;;;4982702;28;20046;-66
2024/01/02 09:12:51;;;;;;;36.00;5.40;;;;;;;;;;4983956;28;20049;-66
2024/01/02 09:15:17;;;;;;;28.63;4.68;;;;;;;;;;4985560;28;20042;-66
2024/01/02 09:17:43;;;;;;;22.60;3.85;;;;;;;;;;4980219;28;20042;-67
2024/01/02 09:20:11;;;;;;;25.25;3.55;;;;;;;;;;4982125;28;20530;-66
2024/01/02 09:22:37;;;;;;;30.58;4.30;;;;;;;;;;4980938;28;20077;-66
2024/01/02 09:25:03;;;;;;;27.15;4.30;;;;;;;;;;4984413;28;20042;-68
2024/01/02 09:27:29;;;;;;;25.70;3.60;;;;;;;;;;4982539;28;20030;-66
2024/01/02 09:29:58;;;;;;;25.33;3.72;;;;;;;;;;4979780;28;20038;-67
2024/01/02 09:32:24;;;;;;;27.45;3.67;;;;;;;;;;4982857;28;20046;-69
2024/01/02 09:34:50;;;;;;;32.90;3.80;;;;;;;;;;4982407;28;20034;-66
2024/01/02 09:37:16;;;;;;;23.92;4.60;;;;;;;;;;4979567;28;20570;-67
2024/01/02 09:39:43;;;;;;;30.45;3.75;;;;;;;;;;4974045;28;20038;-66
2024/01/02 09:42:12;;;;;;;27.63;4.00;;;;;;;;;;4987206;28;20057;-66
2024/01/02 09:44:56;;;;;;;22.92;3.05;;;;;;;;;;4985986;28;20050;-66
2024/01/02 09:47:25;;;;;;;23.05;3.13;;;;;;;;;;4985357;28;20062;-69
2024/01/02 09:50:12;;;;;;;21.02;3.50;;;;;;;;;;4985025;28;20031;-69
2024/01/02 09:52:57;;;;;;;24.92;3.10;;;;;;;;;;4969682;28;20132;-69
2024/01/02 09:55:38;;;;;;;26.00;3.58;;;;;;;;;;4985094;28;20039;-70
2024/01/02 09:58:22;;;;;;;22.70;3.22;;;;;;;;;;4979665;28;20042;-70
2024/01/02 10:00:58;;;;;;;18.15;2.85;;;;;;;;;;4948891;28;20051;-71
2024/01/02 10:03:43;;;;;;;25.20;3.20;;;;;;;;;;4965866;28;20129;-74
2024/01/02 10:06:12;;;;;;;23.02;3.55;;;;;;;;;;4962721;28;20042;-68
2024/01/02 10:08:56;;;;;;;24.92;3.45;;;;;;;;;;4964262;28;20039;-71
2024/01/02 10:11:22;;;;;;;21.67;3.40;;;;;;;;;;4958422;28;20480;-69
2024/01/02 10:13:51;;;;;;;17.02;3.38;;;;;;;;;;4963936;28;20100;-69
2024/01/02 10:16:20;;;;;;;28.70;3.35;;;;;;;;;;4950522;28;20074;-67
2024/01/02 10:19:02;;;;;;;27.08;3.78;;;;;;;;;;4963986;28;20046;-68
2024/01/02 10:21:28;;;;;;;28.67;3.50;;;;;;;;;;4963753;28;20031;-68
2024/01/02 10:24:09;;;;;;;26.70;3.35;;;;;;;;;;4969092;28;20046;-69
2024/01/02 10:26:38;;;;;;;24.73;3.22;;;;;;;;;;4965147;28;20686;-67
2024/01/02 10:29:05;;;;;;;15.38;2.85;;;;;;;;;;4964755;28;20042;-67
2024/01/02 10:31:33;;;;;;;27.10;3.45;;;;;;;;;;4964424;28;20102;-68
2024/01/02 10:34:07;;;;;;;22.55;3.58;;;;;;;;;;4964103;28;20122;-68
2024/01/02 10:36:36;;;;;;;26.85;3.67;;;;;;;;;;4965248;28;20110;-68
2024/01/02 10:39:12;;;;;;;26.48;3.38;;;;;;;;;;4965546;28;20051;-69
2024/01/02 10:41:38;;;;;;;25.95;3.70;;;;;;;;;;4969738;28;20057;-67
2024/01/02 10:44:09;;;;;;;22.60;3.05;;;;;;;;;;4967995;28;20528;-69
2024/01/02 10:46:53;;;;;;;28.35;3.85;;;;;;;;;;4964659;28;20457;-69
2024/01/02 10:49:19;;;;;;;24.60;3.45;;;;;;;;;;4959329;28;20038;-68
2024/01/02 10:51:47;;;;;;;20.65;3.67;;;;;;;;;;4960045;28;20039;-67
2024/01/02 10:54:24;;;;;;;28.23;4.25;;;;;;;;;;4965069;28;20042;-69
2024/01/02 10:56:58;;;;;;;17.05;2.78;;;;;;;;;;4964625;28;20042;-68
2024/01/02 10:59:24;;;;;;;20.38;3.30;;;;;;;;;;4965388;28;20046;-68
2024/01/02 11:01:52;;;;;;;30.15;3.83;;;;;;;;;;4966741;28;20065;-68
2024/01/02 11:04:32;;;;;;;24.67;3.90;;;;;;;;;;4955677;28;20114;-66
2024/01/02 11:07:05;;;;;;;21.42;4.30;;;;;;;;;;4953404;28;20039;-67
2024/01/02 11:09:39;;;;;;;30.17;4.28;;;;;;;;;;4965998;28;20154;-67
2024/01/02 11:12:06;;;;;;;21.80;3.60;;;;;;;;;;4965243;28;20105;-67
2024/01/02 11:14:32;;;;;;;13.20;3.20;;;;;;;;;;4964477;28;20054;-67
2024/01/02 11:16:58;;;;;;;20.17;3.20;;;;;;;;;;4965547;28;20081;-67
2024/01/02 11:19:30;;;;;;;17.30;2.97;;;;;;;;;;4964637;28;20086;-67
2024/01/02 11:22:09;;;;;;;25.75;3.33;;;;;;;;;;4961705;28;20142;-69
2024/01/02 11:24:35;;;;;;;23.58;3.42;;;;;;;;;;4965437;28;20031;-68
2024/01/02 11:27:03;;;;;;;23.55;3.95;;;;;;;;;;4972223;28;20425;-68
2024/01/02 11:29:31;;;;;;;32.50;4.35;;;;;;;;;;4970170;28;20042;-67
2024/01/02 11:31:58;;;;;;;31.52;4.65;;;;;;;;;;4968719;28;20129;-67
2024/01/02 11:34:36;;;;;;;31.23;4.75;;;;;;;;;;4968815;28;20035;-68
2024/01/02 11:37:17;;;;;;;40.53;5.53;;;;;;;;;;4968897;28;20034;-70
2024/01/02 11:39:59;;;;;;;23.30;4.05;;;;;;;;;;4969310;28;20035;-69
2024/01/02 11:42:50;;;;;;;29.73;4.75;;;;;;;;;;4972107;28;20043;-68
2024/01/02 11:45:17;;;;;;;35.55;5.80;;;;;;;;;;4969688;28;20051;-69
2024/01/02 11:47:44;;;;;;;31.95;5.15;;;;;;;;;;4969202;28;20038;-69
2024/01/02 11:50:11;;;;;;;38.60;5.68;;;;;;;;;;4968597;28;20726;-69
2024/01/02 11:52:48;;;;;;;37.70;5.68;;;;;;;;;;4968221;28;20034;-69
2024/01/02 11:55:14;;;;;;;36.97;6.43;;;;;;;;;;4969233;28;20122;-69
2024/01/02 11:57:43;;;;;;;35.47;5.80;;;;;;;;;;4969139;28;20167;-69
2024/01/02 12:00:11;;;;;;;33.65;4.88;;;;;;;;;;4953825;28;20051;-69
2024/01/02 12:02:38;;;;;;;47.05;5.38;;;;;;;;;;4969131;28;20043;-69
2024/01/02 12:05:11;;;;;;;35.20;6.32;;;;;;;;;;4967396;28;20458;-69
2024/01/02 12:07:41;;;;;;;34.90;5.90;;;;;;;;;;4968715;28;20440;-69
2024/01/02 12:10:09;;;;;;;36.45;5.43;;;;;;;;;;4968018;28;20053;-69
2024/01/02 12:12:51;;;;;;;37.92;5.13;;;;;;;;;;4969544;28;20488;-69
2024/01/02 12:15:36;;;;;;;38.10;5.68;;;;;;;;;;4949300;29;20532;-69
2024/01/02 12:18:06;;;;;;;39.38;6.50;;;;;;;;;;4964638;28;20071;-69
2024/01/02 12:20:44;;;;;;;41.70;6.05;;;;;;;;;;4975923;28;20146;-69
2024/01/02 12:23:11;;;;;;;43.53;7.20;;;;;;;;;;4951327;28;20059;-69
2024/01/02 12:25:40;;;;;;;36.80;6.25;;;;;;;;;;4966665;28;20035;-69
2024/01/02 12:28:06;;;;;;;42.97;6.82;;;;;;;;;;4963438;28;20074;-68
2024/01/02 12:30:42;;;;;;;37.90;6.85;;;;;;;;;;4964850;28;20047;-67
2024/01/02 12:33:19;;;;;;;36.20;7.00;;;;;;;;;;4964902;28;20066;-69
2024/01/02 12:36:04;;;;;;;32.20;6.35;;;;;;;;;;4966191;28;20034;-67
2024/01/02 12:38:33;;;;;;;32.33;7.20;;;;;;;;;;4965516;28;20085;-66
2024/01/02 12:41:00;;;;;;;32.15;6.32;;;;;;;;;;4967194;28;20570;-66
2024/01/02 12:43:29;;;;;;;38.63;7.20;;;;;;;;;;4968239;28;20679;-68
2024/01/02 12:46:28;;;;;;;33.33;7.28;;;;;;;;;;4967027;28;20146;-68
2024/01/02 12:49:15;;;;;;;40.25;6.68;;;;;;;;;;4896025;29;20036;-69
2024/01/02 12:51:45;;;;;;;41.72;6.82;;;;;;;;;;4885322;29;20170;-68
2024/01/02 12:54:13;;;;;;;39.28;6.72;;;;;;;;;;4900468;29;20187;-68
2024/01/02 12:56:41;;;;;;;47.15;7.80;;;;;;;;;;4886443;29;20053;-70
2024/01/02 12:59:07;;;;;;;34.05;6.95;;;;;;;;;;4879331;29;20088;-68
2024/01/02 13:01:34;;;;;;;34.72;6.55;;;;;;;;;;4888331;29;20087;-67
2024/01/02 13:04:00;;;;;;;41.38;7.05;;;;;;;;;;4891727;29;20100;-66
2024/01/02 13:06:29;;;;;;;36.95;7.32;;;;;;;;;;4888463;29;20739;-68
2024/01/02 13:08:56;;;;;;;43.50;7.80;;;;;;;;;;4887399;29;20036;-67
2024/01/02 13:11:22;;;;;;;42.50;7.03;;;;;;;;;;4890086;29;20080;-67
2024/01/02 13:13:49;;;;;;;44.42;7.57;;;;;;;;;;4887520;29;20132;-66
2024/01/02 13:16:16;;;;;;;43.15;8.38;;;;;;;;;;4878131;29;20084;-68
2024/01/02 13:18:42;;;;;;;33.00;8.05;;;;;;;;;;4886230;29;20056;-67
2024/01/02 13:23:57;;;;;;;36.88;7.80;;;;;;;;;;4899647;28;20044;-67
2024/01/02 13:26:24;;;;;;;47.92;8.23;;;;;;;;;;4958488;28;20046;-67
2024/01/02 13:28:51;;;;;;;42.25;8.02;;;;;;;;;;4966090;28;20038;-68
2024/01/02 13:31:36;;;;;;;35.95;7.45;;;;;;;;;;4955993;28;20046;-67
2024/01/02 13:34:03;;;;;;;37.95;8.10;;;;;;;;;;4956352;28;20094;-63
2024/01/02 13:36:30;;;;;;;43.88;9.02;;;;;;;;;;4955449;28;20051;-62
2024/01/02 13:38:56;;;;;;;40.70;8.20;;;;;;;;;;4955050;28;20571;-63
2024/01/02 13:41:24;;;;;;;43.10;8.07;;;;;;;;;;4962589;28;20047;-63
2024/01/02 13:43:50;;;;;;;36.50;7.35;;;;;;;;;;4969712;28;20039;-62
2024/01/02 13:46:24;;;;;;;41.30;8.35;;;;;;;;;;4966227;28;20145;-63
2024/01/02 13:48:55;;;;;;;42.83;8.13;;;;;;;;;;4961376;28;20505;-63
2024/01/02 13:51:22;;;;;;;39.00;7.85;;;;;;;;;;4967518;28;20046;-64
2024/01/02 13:54:01;;;;;;;35.60;8.48;;;;;;;;;;4967207;28;20085;-63
2024/01/02 13:56:30;;;;;;;45.85;9.98;;;;;;;;;;4962419;28;20091;-63
2024/01/02 13:59:00;;;;;;;48.20;10.02;;;;;;;;;;4964391;28;20093;-64
2024/01/02 14:01:30;;;;;;;44.20;10.18;;;;;;;;;;4967880;28;20054;-64
2024/01/02 14:03:57;;;;;;;39.15;9.90;;;;;;;;;;4964931;28;20061;-65
2024/01/02 14:06:23;;;;;;;50.63;10.70;;;;;;;;;;4965723;28;20038;-64
2024/01/02 14:09:07;;;;;;;33.35;9.88;;;;;;;;;;4965916;28;20066;-64
2024/01/02 14:11:33;;;;;;;39.28;9.50;;;;;;;;;;4965472;28;20836;-64
2024/01/02 14:14:06;;;;;;;29.98;9.20;;;;;;;;;;4965847;28;20046;-64
2024/01/02 14:16:32;;;;;;;;;;;;;;;;;;4967659;28;20045;-65
2024/01/02 14:18:58;;;;;;;23.45;7.32;;;;;;;;;;4966488;28;19917;-66
2024/01/02 14:21:24;;;;;;;20.35;7.32;;;;;;;;;;4959843;28;20761;-65
2024/01/02 14:24:04;;;;;;;12.55;5.90;;;;;;;;;;4963406;28;20820;-63
2024/01/02 14:27:09;;;;;;;16.90;6.80;;;;;;;;;;4964414;28;20532;-64
2024/01/02 14:29:38;;;;;;;15.75;7.07;;;;;;;;;;4866698;29;20064;-64
2024/01/02 14:32:13;;;;;;;19.23;7.43;;;;;;;;;;4880664;29;20558;-64
2024/01/02 14:34:51;;;;;;;19.25;8.55;;;;;;;;;;4867763;29;20052;-65
2024/01/02 14:37:19;;;;;;;19.45;8.40;;;;;;;;;;4877186;29;20040;-65
2024/01/02 14:39:51;;;;;;;17.48;8.05;;;;;;;;;;4876804;29;20543;-65
2024/01/02 14:42:47;;;;;;;23.58;7.90;;;;;;;;;;4882450;29;20040;-64
2024/01/02 14:45:22;;;;;;;18.40;8.57;;;;;;;;;;4875099;29;20052;-64
2024/01/02 14:48:11;;;;;;;17.58;7.85;;;;;;;;;;4870919;29;20097;-65
2024/01/02 14:51:03;;;;;;;16.40;8.40;;;;;;;;;;4878424;29;20523;-65
2024/01/02 14:53:29;;;;;;;14.38;7.60;;;;;;;;;;4885977;29;20666;-65
2024/01/02 14:56:07;;;;;;;12.13;6.68;;;;;;;;;;4871230;29;20045;-64
2024/01/02 14:58:52;;;;;;;13.15;6.80;;;;;;;;;;4871999;29;20084;-64
2024/01/02 15:01:21;;;;;;;9.40;6.20;;;;;;;;;;4955684;28;20515;-64
2024/01/02 15:04:01;;;;;;;8.43;5.35;;;;;;;;;;4970275;28;20042;-68
2024/01/02 15:06:29;;;;;;;10.05;5.95;;;;;;;;;;4972818;28;20038;-68
2024/01/02 15:09:07;;;;;;;8.35;5.10;;;;;;;;;;4970129;28;20056;-68
2024/01/02 15:11:35;;;;;;;5.60;4.57;;;;;;;;;;4974605;28;20042;-68
2024/01/02 15:14:20;;;;;;;7.13;4.68;;;;;;;;;;4970103;28;20070;-68
2024/01/02 15:17:06;;;;;;;7.68;4.68;;;;;;;;;;4970420;28;20042;-67
2024/01/02 15:20:00;;;;;;;6.25;4.13;;;;;;;;;;4949953;28;20050;-67
2024/01/02 15:22:43;;;;;;;4.75;3.88;;;;;;;;;;4975422;28;20042;-68
2024/01/02 15:25:12;;;;;;;4.22;3.72;;;;;;;;;;4970740;28;20668;-68
2024/01/02 15:27:43;;;;;;;3.60;2.90;;;;;;;;;;4970421;28;20034;-69
2024/01/02 15:30:10;;;;;;;4.53;3.70;;;;;;;;;;4970613;28;20043;-68
2024/01/02 15:32:38;;;;;;;3.97;3.47;;;;;;;;;;4970278;28;20066;-68
2024/01/02 15:35:07;;;;;;;5.07;3.72;;;;;;;;;;4970291;28;20039;-68
2024/01/02 15:37:35;;;;;;;4.10;3.30;;;;;;;;;;4970194;28;20047;-68
2024/01/02 15:40:08;;;;;;;4.15;3.15;;;;;;;;;;4970345;28;20385;-68
2024/01/02 15:42:34;;;;;;;3.50;3.20;;;;;;;;;;4970008;28;20543;-68
2024/01/02 15:45:03;;;;;;;3.30;2.80;;;;;;;;;;4970042;28;20049;-68
2024/01/02 15:47:48;;;;;;;3.78;2.67;;;;;;;;;;4970366;28;20046;-68
2024/01/02 15:50:19;;;;;;;2.55;2.30;;;;;;;;;;4969983;28;20382;-68
2024/01/02 15:52:49;;;;;;;2.53;2.10;;;;;;;;;;4969066;28;20038;-68
2024/01/02 15:55:16;;;;;;;2.70;2.40;;;;;;;;;;4964289;28;20650;-67
2024/01/02 15:57:49;;;;;;;2.78;2.40;;;;;;;;;;4968150;28;20126;-64
2024/01/02 16:00:21;;;;;;;2.50;2.30;;;;;;;;;;4967453;28;20058;-64
2024/01/02 16:03:06;;;;;;;2.70;2.50;;;;;;;;;;4967791;28;20495;-64
2024/01/02 16:05:35;;;;;;;2.08;1.70;;;;;;;;;;4967601;28;20122;-64
2024/01/02 16:08:29;;;;;;;2.88;2.40;;;;;;;;;;4968126;28;20082;-64
2024/01/02 16:10:54;;;;;;;3.75;2.15;;;;;;;;;;4951633;28;20042;-64
2024/01/02 16:13:26;;;;;;;2.55;2.35;;;;;;;;;;4970332;28;20109;-64
2024/01/02 16:16:16;;;;;;;3.78;2.30;;;;;;;;;;4968975;28;20031;-64
2024/01/02 16:18:45;;;;;;;3.45;2.40;;;;;;;;;;4971877;28;20091;-64
2024/01/02 16:21:21;;;;;;;2.58;2.38;;;;;;;;;;4987959;28;20038;-64
2024/01/02 16:23:52;;;;;;;7.10;3.38;;;;;;;;;;4988368;28;20045;-64
2024/01/02 16:26:25;;;;;;;10.23;5.05;;;;;;;;;;4988838;28;20042;-64
2024/01/02 16:28:57;;;;;;;6.55;4.50;;;;;;;;;;4989065;28;20050;-64
2024/01/02 16:31:46;;;;;;;3.50;3.20;;;;;;;;;;4985521;28;20051;-64
2024/01/02 16:34:12;;;;;;;2.83;2.63;;;;;;;;;;4959267;28;20047;-64
2024/01/02 16:36:51;;;;;;;4.18;3.10;;;;;;;;;;4969378;28;20042;-64
2024/01/02 16:39:18;;;;;;;20.25;14.70;;;;;;;;;;4969524;28;20039;-64
2024/01/02 16:41:44;;;;;;;24.27;15.93;;;;;;;;;;4969694;28;20603;-64
2024/01/02 16:44:17;;;;;;;6.70;5.95;;;;;;;;;;4969120;28;20435;-64
2024/01/02 16:46:43;;;;;;;7.93;6.25;;;;;;;;;;4969635;28;20680;-64
2024/01/02 16:49:13;;;;;;;8.88;5.60;;;;;;;;;;4969242;28;20138;-64
2024/01/02 16:51:43;;;;;;;9.52;6.80;;;;;;;;;;4969387;28;20097;-64
2024/01/02 16:54:09;;;;;;;7.45;5.85;;;;;;;;;;4969040;28;20050;-64
2024/01/02 16:56:36;;;;;;;6.70;5.47;;;;;;;;;;4968680;28;20674;-64
2024/01/02 16:59:04;;;;;;;5.40;4.45;;;;;;;;;;4967743;28;20505;-64
2024/01/02 17:01:33;;;;;;;5.85;4.20;;;;;;;;;;4969013;28;20060;-64
2024/01/02 17:03:59;;;;;;;4.57;4.18;;;;;;;;;;4969325;28;20100;-63
2024/01/02 17:06:26;;;;;;;5.93;4.85;;;;;;;;;;4968977;28;20035;-64
2024/01/02 17:08:52;;;;;;;5.32;4.15;;;;;;;;;;4969109;28;20047;-63
2024/01/02 17:11:27;;;;;;;6.28;5.00;;;;;;;;;;4972652;28;20042;-63
2024/01/02 17:13:53;;;;;;;7.22;5.60;;;;;;;;;;4988307;28;20207;-63
2024/01/02 17:16:21;;;;;;;6.20;5.28;;;;;;;;;;4988153;28;20577;-63
2024/01/02 17:18:47;;;;;;;6.75;5.90;;;;;;;;;;4985067;28;20047;-63
2024/01/02 17:21:14;;;;;;;5.57;5.07;;;;;;;;;;4968503;28;20100;-63
2024/01/02 17:23:45;;;;;;;6.25;5.65;;;;;;;;;;4967767;28;20046;-63
2024/01/02 17:26:11;;;;;;;6.82;5.63;;;;;;;;;;4968291;28;20054;-63
2024/01/02 17:28:47;;;;;;;5.72;4.90;;;;;;;;;;4968960;28;20039;-63
2024/01/02 17:31:13;;;;;;;8.68;5.57;;;;;;;;;;4968497;28;20039;-63
2024/01/02 17:33:42;;;;;;;9.02;5.75;;;;;;;;;;4968317;28;20121;-63
2024/01/02 17:36:09;;;;;;;8.75;6.80;;;;;;;;;;4967780;28;20101;-63
2024/01/02 17:38:36;;;;;;;7.13;5.82;;;;;;;;;;4968111;28;20085;-63
2024/01/02 17:41:03;;;;;;;6.07;5.30;;;;;;;;;;4951177;28;20042;-63
2024/01/02 17:43:29;;;;;;;6.80;5.25;;;;;;;;;;4968646;28;20166;-63
2024/01/02 17:45:56;;;;;;;6.90;5.03;;;;;;;;;;4968060;28;20039;-63
2024/01/02 17:48:23;;;;;;;12.68;5.68;;;;;;;;;;4968280;28;20632;-63
2024/01/02 17:50:55;;;;;;;7.07;5.75;;;;;;;;;;4968186;28;20043;-63
2024/01/02 17:53:26;;;;;;;8.82;5.07;;;;;;;;;;4967978;28;20714;-63
2024/01/02 17:55:55;;;;;;;8.88;4.85;;;;;;;;;;4967738;28;20051;-64
2024/01/02 17:58:25;;;;;;;5.18;4.65;;;;;;;;;;4967909;28;20061;-64
2024/01/02 18:00:52;;;;;;;5.82;4.22;;;;;;;;;;4967788;28;20059;-64
2024/01/02 18:03:36;;;;;;;4.38;3.80;;;;;;;;;;4966530;28;20133;-64
2024/01/02 18:06:23;;;;;;;4.88;4.07;;;;;;;;;;4967458;28;20116;-64
2024/01/02 18:08:49;;;;;;;3.95;3.53;;;;;;;;;;4968103;28;20513;-64
2024/01/02 18:11:15;;;;;;;3.60;3.30;;;;;;;;;;4970175;28;20050;-64
2024/01/02 18:13:54;;;;;;;4.75;3.63;;;;;;;;;;4987238;28;20066;-64
2024/01/02 18:16:30;;;;;;;3.95;2.92;;;;;;;;;;4986951;28;20101;-64
2024/01/02 18:18:56;;;;;;;3.15;2.85;;;;;;;;;;4982667;28;20038;-64
2024/01/02 18:21:29;;;;;;;3.47;2.78;;;;;;;;;;4967647;28;20768;-64
2024/01/02 18:23:59;;;;;;;3.20;2.90;;;;;;;;;;4967635;28;20114;-64
2024/01/02 18:26:28;;;;;;;2.75;2.38;;;;;;;;;;4967254;28;20385;-64
2024/01/02 18:29:09;;;;;;;2.47;1.98;;;;;;;;;;4967365;28;20106;-64
2024/01/02 18:31:43;;;;;;;2.97;2.58;;;;;;;;;;4967400;28;20069;-64
2024/01/02 18:34:10;;;;;;;3.03;2.72;;;;;;;;;;4950868;28;20587;-64
2024/01/02 18:36:46;;;;;;;;;;;;;;;;;;;;;
2024/01/02 18:39:32;;;;;;;3.90;2.60;;;;;;;;;;4963244;28;20121;-64
2024/01/02 18:42:05;;;;;;;3.28;2.95;;;;;;;;;;4918527;28;20105;-64
2024/01/02 18:44:30;;;;;;;;;;;;;;;;;;4967626;28;20400;-64
2024/01/02 18:47:06;;;;;;;4.00;3.00;;;;;;;;;;4967636;28;19926;-64
2024/01/02 18:49:32;;;;;;;5.05;3.47;;;;;;;;;;4967519;28;20505;-64
2024/01/02 18:52:14;;;;;;;4.30;3.42;;;;;;;;;;4967630;28;20038;-64
2024/01/02 18:55:01;;;;;;;4.32;3.40;;;;;;;;;;4949483;28;20051;-64
2024/01/02 18:57:27;;;;;;;4.05;3.63;;;;;;;;;;4967327;28;20050;-64
2024/01/02 18:59:53;;;;;;;4.82;3.60;;;;;;;;;;4966863;28;20054;-64
2024/01/02 19:02:19;;;;;;;3.45;3.15;;;;;;;;;;4967042;28;20047;-64
2024/01/02 19:04:47;;;;;;;4.63;2.97;;;;;;;;;;4966857;28;20062;-64
2024/01/02 19:07:16;;;;;;;3.05;2.75;;;;;;;;;;4967502;28;20043;-64
2024/01/02 19:09:45;;;;;;;6.28;2.78;;;;;;;;;;4967171;28;20042;-64
2024/01/02 19:12:11;;;;;;;3.80;2.63;;;;;;;;;;4976981;28;20132;-64
2024/01/02 19:14:37;;;;;;;2.85;2.42;;;;;;;;;;4986682;28;20559;-64
2024/01/02 19:17:03;;;;;;;6.65;2.30;;;;;;;;;;4986490;28;20049;-64
2024/01/02 19:19:36;;;;;;;4.32;2.80;;;;;;;;;;4977570;28;20043;-64
2024/01/02 19:22:02;;;;;;;4.45;2.53;;;;;;;;;;4966844;28;20517;-64
2024/01/02 19:24:31;;;;;;;6.00;2.25;;;;;;;;;;4966895;28;20603;-64
2024/01/02 19:27:00;;;;;;;2.80;2.30;;;;;;;;;;4966830;28;20193;-64
2024/01/02 19:29:27;;;;;;;7.53;2.35;;;;;;;;;;4966781;28;20043;-64
2024/01/02 19:31:53;;;;;;;7.97;2.10;;;;;;;;;;4967049;28;20121;-64
2024/01/02 19:34:19;;;;;;;5.00;1.75;;;;;;;;;;4967363;28;20130;-64
2024/01/02 19:36:49;;;;;;;7.47;2.15;;;;;;;;;;4966381;28;20054;-64
2024/01/02 19:39:20;;;;;;;11.57;2.20;;;;;;;;;;4967213;28;20794;-64
2024/01/02 19:41:46;;;;;;;12.98;2.47;;;;;;;;;;4967009;28;20141;-64
2024/01/02 19:44:12;;;;;;;8.70;2.20;;;;;;;;;;4967210;28;20117;-64
2024/01/02 19:46:38;;;;;;;7.55;1.83;;;;;;;;;;4966280;28;20039;-64
2024/01/02 19:49:07;;;;;;;14.25;2.33;;;;;;;;;;4970460;28;20039;-64
2024/01/02 19:51:34;;;;;;;10.05;2.13;;;;;;;;;;4969462;28;20042;-64
2024/01/02 19:54:02;;;;;;;8.57;1.77;;;;;;;;;;4969430;28;20047;-64
2024/01/02 19:56:28;;;;;;;11.10;2.13;;;;;;;;;;4969653;28;20047;-64
2024/01/02 19:58:54;;;;;;;12.80;2.28;;;;;;;;;;4970645;28;20105;-64
2024/01/02 20:01:20;;;;;;;8.10;2.45;;;;;;;;;;4970115;28;20460;-64
2024/01/02 20:03:49;;;;;;;10.90;2.40;;;;;;;;;;4970553;28;20047;-64
2024/01/02 20:06:43;;;;;;;15.27;2.10;;;;;;;;;;4969913;28;20043;-64
2024/01/02 20:09:19;;;;;;;12.13;1.85;;;;;;;;;;4952909;28;20444;-64
2024/01/02 20:11:45;;;;;;;11.02;2.83;;;;;;;;;;4976302;28;20038;-64
2024/01/02 20:14:30;;;;;;;11.65;1.95;;;;;;;;;;4972060;28;20060;-64
2024/01/02 20:16:59;;;;;;;10.20;2.58;;;;;;;;;;4989469;28;20046;-64
2024/01/02 20:19:26;;;;;;;8.50;1.85;;;;;;;;;;4981105;28;20109;-64
2024/01/02 20:21:52;;;;;;;7.00;1.90;;;;;;;;;;4969598;28;20054;-64
2024/01/02 20:24:20;;;;;;;10.95;2.63;;;;;;;;;;4969951;28;20034;-64
2024/01/02 20:26:46;;;;;;;7.80;2.15;;;;;;;;;;4969445;28;20038;-64
2024/01/02 20:29:31;;;;;;;7.72;1.77;;;;;;;;;;4969595;28;20033;-65
2024/01/02 20:31:57;;;;;;;10.43;1.50;;;;;;;;;;4957232;28;20054;-65
2024/01/02 20:34:29;;;;;;;10.07;2.10;;;;;;;;;;4969623;28;20050;-64
2024/01/02 20:36:55;;;;;;;12.52;3.00;;;;;;;;;;4969302;28;20042;-64
2024/01/02 20:39:28;;;;;;;11.35;1.90;;;;;;;;;;4969541;28;20042;-65
2024/01/02 20:42:01;;;;;;;10.52;1.73;;;;;;;;;;4969151;28;20125;-65
2024/01/02 20:44:29;;;;;;;12.90;1.90;;;;;;;;;;4969181;28;20065;-65
2024/01/02 20:46:55;;;;;;;11.75;1.77;;;;;;;;;;4969166;28;20035;-64
2024/01/02 20:49:24;;;;;;;11.88;2.53;;;;;;;;;;4968162;28;20049;-64
2024/01/02 20:51:50;;;;;;;9.10;3.50;;;;;;;;;;4969444;28;20039;-65
2024/01/02 20:54:18;;;;;;;12.52;2.25;;;;;;;;;;4969220;28;20039;-65
2024/01/02 20:56:55;;;;;;;15.40;4.20;;;;;;;;;;4968539;28;20034;-65
2024/01/02 20:59:23;;;;;;;12.73;2.58;;;;;;;;;;4968311;28;20055;-65
2024/01/02 21:01:49;;;;;;;14.82;2.70;;;;;;;;;;4968884;28;20054;-65
2024/01/02 21:04:22;;;;;;;19.20;3.10;;;;;;;;;;4967750;28;20034;-65
2024/01/02 21:06:48;;;;;;;10.43;2.10;;;;;;;;;;4968569;28;20038;-65
2024/01/02 21:09:35;;;;;;;8.82;1.90;;;;;;;;;;4969080;28;20038;-65
2024/01/02 21:12:11;;;;;;;9.90;2.25;;;;;;;;;;4964158;28;20130;-65
2024/01/02 21:14:37;;;;;;;10.50;2.13;;;;;;;;;;4988241;28;20048;-65
2024/01/02 21:17:05;;;;;;;9.80;2.08;;;;;;;;;;4987860;28;20042;-65
2024/01/02 21:19:37;;;;;;;9.07;1.90;;;;;;;;;;4979149;28;20062;-65
2024/01/02 21:22:11;;;;;;;10.20;2.20;;;;;;;;;;4968232;28;20043;-65
2024/01/02 21:24:37;;;;;;;9.85;2.40;;;;;;;;;;4968835;28;20433;-65
2024/01/02 21:27:06;;;;;;;15.70;2.15;;;;;;;;;;4968235;28;20050;-65
2024/01/02 21:29:32;;;;;;;12.77;3.13;;;;;;;;;;4968571;28;20512;-65
2024/01/02 21:31:58;;;;;;;13.75;2.10;;;;;;;;;;4968428;28;20090;-64